sensor_id;sensor_type;location;lat;lon;timestamp;P1;P2;P0
74426;PMS7003;62859;53.906;27.430;2024-02-16T00:04:51;5.3;5;4
74426;PMS7003;62859;53.906;27.430;2024-02-16T00:09:35;7;6.7;3.7
74426;PMS7003;62859;53.906;27.430;2024-02-16T00:14:15;6.7;6;3.3
74426;PMS7003;62859;53.906;27.430;2024-02-16T00:19:51;7;6.5;3.8
74426;PMS7003;62859;53.906;27.430;2024-02-16T00:24:33;6.3;5.7;4.3
74426;PMS7003;62859;53.906;27.430;2024-02-16T00:29:31;7;5;3.3
74426;PMS7003;62859;53.906;27.430;2024-02-16T00:34:17;7.3;5.3;3.3
74426;PMS7003;62859;53.906;27.430;2024-02-16T00:39:31;6;5.3;3.5
74426;PMS7003;62859;53.906;27.430;2024-02-16T00:44:23;7.3;6.3;3.3
74426;PMS7003;62859;53.906;27.430;2024-02-16T00:49:43;7;6.7;4.7
74426;PMS7003;62859;53.906;27.430;2024-02-16T00:54:15;7;5.3;3.7
74426;PMS7003;62859;53.906;27.430;2024-02-16T00:59:17;7.8;6.3;3.3
74426;PMS7003;62859;53.906;27.430;2024-02-16T01:04:09;7.3;6.3;4
74426;PMS7003;62859;53.906;27.430;2024-02-16T01:09:51;7;5.7;4
74426;PMS7003;62859;53.906;27.430;2024-02-16T01:14:31;6.5;6;4.3
74426;PMS7003;62859;53.906;27.430;2024-02-16T01:19:15;7.7;7.3;4.7
74426;PMS7003;62859;53.906;27.430;2024-02-16T01:24:31;6.3;5.3;3.3
74426;PMS7003;62859;53.906;27.430;2024-02-16T01:29:09;5.3;4.7;3
74426;PMS7003;62859;53.906;27.430;2024-02-16T01:34:29;5.3;5.3;3.8
74426;PMS7003;62859;53.906;27.430;2024-02-16T01:39:15;7.3;7;3.7
74426;PMS7003;62859;53.906;27.430;2024-02-16T01:44:51;7.3;4.3;4
74426;PMS7003;62859;53.906;27.430;2024-02-16T01:49:09;6;5.3;4
74426;PMS7003;62859;53.906;27.430;2024-02-16T01:54:29;6.8;6.3;3.3
74426;PMS7003;62859;53.906;27.430;2024-02-16T01:59:15;6.7;6;4
74426;PMS7003;62859;53.906;27.430;2024-02-16T02:04:29;6.7;6.7;3.7
74426;PMS7003;62859;53.906;27.430;2024-02-16T02:09:23;7.3;6.3;4
74426;PMS7003;62859;53.906;27.430;2024-02-16T02:14:11;6.5;5.8;4
74426;PMS7003;62859;53.906;27.430;2024-02-16T02:19:23;4.3;4.3;3.7
74426;PMS7003;62859;53.906;27.430;2024-02-16T02:24:33;7.3;5.3;3
74426;PMS7003;62859;53.906;27.430;2024-02-16T02:29:19;5.3;5.3;3
74426;PMS7003;62859;53.906;27.430;2024-02-16T02:34:51;7.3;5;3.5
74426;PMS7003;62859;53.906;27.430;2024-02-16T02:39:21;6.3;5.7;4
74426;PMS7003;62859;53.906;27.430;2024-02-16T02:44:41;10;7.3;4.3
74426;PMS7003;62859;53.906;27.430;2024-02-16T02:49:51;6.7;6.3;4
74426;PMS7003;62859;53.906;27.430;2024-02-16T02:54:15;6.8;6;3.3
74426;PMS7003;62859;53.906;27.430;2024-02-16T02:59:15;6.7;5.3;3.7
74426;PMS7003;62859;53.906;27.430;2024-02-16T03:04:43;8.3;7;5
74426;PMS7003;62859;53.906;27.430;2024-02-16T03:09:10;4.8;4.5;3.3
74426;PMS7003;62859;53.906;27.430;2024-02-16T03:14:21;7;6;3
74426;PMS7003;62859;53.906;27.430;2024-02-16T03:19:13;6;5;4
74426;PMS7003;62859;53.906;27.430;2024-02-16T03:24:41;6;5.3;3.3
74426;PMS7003;62859;53.906;27.430;2024-02-16T03:29:43;7.3;6;3.5
74426;PMS7003;62859;53.906;27.430;2024-02-16T03:34:33;8;6.3;4.3
74426;PMS7003;62859;53.906;27.430;2024-02-16T03:39:51;4.3;4;2
74426;PMS7003;62859;53.906;27.430;2024-02-16T03:44:23;7.3;6.3;4
74426;PMS7003;62859;53.906;27.430;2024-02-16T03:49:43;5.8;5.8;3.5
74426;PMS7003;62859;53.906;27.430;2024-02-16T03:54:15;7;6.3;4.7
74426;PMS7003;62859;53.906;27.430;2024-02-16T03:59:43;6;5.7;3.3
74426;PMS7003;62859;53.906;27.430;2024-02-16T04:04:17;7.7;5.7;4
74426;PMS7003;62859;53.906;27.430;2024-02-16T04:09:41;6.8;5.8;3.8
74426;PMS7003;62859;53.906;27.430;2024-02-16T04:14:21;7;7;4.3
74426;PMS7003;62859;53.906;27.430;2024-02-16T04:19:36;7;6;4
74426;PMS7003;62859;53.906;27.430;2024-02-16T04:24:51;7.3;4.3;3
74426;PMS7003;62859;53.906;27.430;2024-02-16T04:29:21;6.3;6.3;3.8
74426;PMS7003;62859;53.906;27.430;2024-02-16T04:34:09;9;6;3
74426;PMS7003;62859;53.906;27.430;2024-02-16T04:39:09;6.7;5.7;3.7
74426;PMS7003;62859;53.906;27.430;2024-02-16T04:44:09;7;6.7;3.7
74426;PMS7003;62859;53.906;27.430;2024-02-16T04:49:09;8.8;6.8;4.5
74426;PMS7003;62859;53.906;27.430;2024-02-16T04:54:43;6.3;6.3;4
74426;PMS7003;62859;53.906;27.430;2024-02-16T04:59:33;7.7;6;4.3
74426;PMS7003;62859;53.906;27.430;2024-02-16T05:04:51;7.3;6.8;4
74426;PMS7003;62859;53.906;27.430;2024-02-16T05:09:11;7.3;5.7;3.7
74426;PMS7003;62859;53.906;27.430;2024-02-16T05:14:53;6;6;4.3
74426;PMS7003;62859;53.906;27.430;2024-02-16T05:19:53;9.3;7.3;5
74426;PMS7003;62859;53.906;27.430;2024-02-16T05:24:45;8.5;7.5;5
74426;PMS7003;62859;53.906;27.430;2024-02-16T05:29:53;7.3;6.7;4.7
74426;PMS7003;62859;53.906;27.430;2024-02-16T05:34:53;10.3;7;4.3
74426;PMS7003;62859;53.906;27.430;2024-02-16T05:39:27;7.7;6.3;4
74426;PMS7003;62859;53.906;27.430;2024-02-16T05:44:17;7.3;5.5;4
74426;PMS7003;62859;53.906;27.430;2024-02-16T05:49:53;7.3;6.7;4.7
74426;PMS7003;62859;53.906;27.430;2024-02-16T05:54:53;7;6;5
74426;PMS7003;62859;53.906;27.430;2024-02-16T05:59:53;7.3;6.7;5.3
74426;PMS7003;62859;53.906;27.430;2024-02-16T06:04:35;7.8;7;4.5
74426;PMS7003;62859;53.906;27.430;2024-02-16T06:09:54;6.3;6;3.3
74426;PMS7003;62859;53.906;27.430;2024-02-16T06:14:09;6;4.7;4.3
74426;PMS7003;62859;53.906;27.430;2024-02-16T06:19:09;7;6.7;4
74426;PMS7003;62859;53.906;27.430;2024-02-16T06:24:09;7;6.3;5
74426;PMS7003;62859;53.906;27.430;2024-02-16T06:29:35;6.3;5.7;3.7
74426;PMS7003;62859;53.906;27.430;2024-02-16T06:34:09;9;7.3;4.7
74426;PMS7003;62859;53.906;27.430;2024-02-16T06:39:53;6;5.3;3.7
74426;PMS7003;62859;53.906;27.430;2024-02-16T06:44:43;8.3;8;5.7
74426;PMS7003;62859;53.906;27.430;2024-02-16T06:49:25;8.5;8.5;4.8
74426;PMS7003;62859;53.906;27.430;2024-02-16T06:54:53;11.7;9;6.7
74426;PMS7003;62859;53.906;27.430;2024-02-16T06:59:35;11.3;9;6.3
74426;PMS7003;62859;53.906;27.430;2024-02-16T07:04:33;9.7;8.3;5.7
74426;PMS7003;62859;53.906;27.430;2024-02-16T07:09:15;8.8;8.5;6
74426;PMS7003;62859;53.906;27.430;2024-02-16T07:14:25;10.3;8.7;5.3
74426;PMS7003;62859;53.906;27.430;2024-02-16T07:19:17;7.3;6.3;5.7
74426;PMS7003;62859;53.906;27.430;2024-02-16T07:24:45;11.3;8;5.3
74426;PMS7003;62859;53.906;27.430;2024-02-16T07:29:17;10.5;9;6.5
74426;PMS7003;62859;53.906;27.430;2024-02-16T07:34:53;9.7;8;5.7
74426;PMS7003;62859;53.906;27.430;2024-02-16T07:39:15;9.3;8.3;6.3
74426;PMS7003;62859;53.906;27.430;2024-02-16T07:44:43;10;7.3;5.3
74426;PMS7003;62859;53.906;27.430;2024-02-16T07:49:11;9.5;8.5;6.5
74426;PMS7003;62859;53.906;27.430;2024-02-16T07:54:45;11.3;9;6.7
74426;PMS7003;62859;53.906;27.430;2024-02-16T07:59:09;12.3;11.3;6.7
74426;PMS7003;62859;53.906;27.430;2024-02-16T08:04:17;10;9;6.5
74426;PMS7003;62859;53.906;27.430;2024-02-16T08:09:43;10.3;7.7;5
74426;PMS7003;62859;53.906;27.430;2024-02-16T08:14:53;11.3;9.7;6.3
74426;PMS7003;62859;53.906;27.430;2024-02-16T08:19:43;11;11;7.7
74426;PMS7003;62859;53.906;27.430;2024-02-16T08:24:09;13.3;10.8;6.8
74426;PMS7003;62859;53.906;27.430;2024-02-16T08:29:53;11.7;9.7;6.3
74426;PMS7003;62859;53.906;27.430;2024-02-16T08:34:17;13.3;11;7.3
74426;PMS7003;62859;53.906;27.430;2024-02-16T08:39:33;10.7;10.3;7.3
74426;PMS7003;62859;53.906;27.430;2024-02-16T08:44:09;11;9.3;6
74426;PMS7003;62859;53.906;27.430;2024-02-16T08:49:33;13.7;12.7;8.3
74426;PMS7003;62859;53.906;27.430;2024-02-16T08:54:09;11.3;9.7;6.7
74426;PMS7003;62859;53.906;27.430;2024-02-16T08:59:45;12.3;10.7;7
74426;PMS7003;62859;53.906;27.430;2024-02-16T09:04:17;11;8.8;6.5
74426;PMS7003;62859;53.906;27.430;2024-02-16T09:09:34;15;12.7;7.3
74426;PMS7003;62859;53.906;27.430;2024-02-16T09:14:23;11.3;8.3;6
74426;PMS7003;62859;53.906;27.430;2024-02-16T09:19:53;11.7;9.3;6
74426;PMS7003;62859;53.906;27.430;2024-02-16T09:24:53;9.3;7.3;5.8
74426;PMS7003;62859;53.906;27.430;2024-02-16T09:29:09;9.3;7.3;5.7
74426;PMS7003;62859;53.906;27.430;2024-02-16T09:34:33;10;9.3;6.3
74426;PMS7003;62859;53.906;27.430;2024-02-16T09:39:45;12.7;11.3;7
74426;PMS7003;62859;53.906;27.430;2024-02-16T09:44:25;10.5;9.5;6.5
74426;PMS7003;62859;53.906;27.430;2024-02-16T09:49:35;12;10;6.7
74426;PMS7003;62859;53.906;27.430;2024-02-16T09:54:53;12.3;10;7.7
74426;PMS7003;62859;53.906;27.430;2024-02-16T09:59:36;10.5;8.8;7
74426;PMS7003;62859;53.906;27.430;2024-02-16T10:04:45;9;8.3;7
74426;PMS7003;62859;53.906;27.430;2024-02-16T10:09:09;10.5;8;6.5
74426;PMS7003;62859;53.906;27.430;2024-02-16T10:14:56;10.3;9;6.7
74426;PMS7003;62859;53.906;27.430;2024-02-16T10:19:09;10.8;10;6.3
74426;PMS7003;62859;53.906;27.430;2024-02-16T10:24:46;10.7;8.7;6.3
74426;PMS7003;62859;53.906;27.430;2024-02-16T10:29:26;13.3;9;6.7
74426;PMS7003;62859;53.906;27.430;2024-02-16T10:34:11;10.3;8.7;6.7
74426;PMS7003;62859;53.906;27.430;2024-02-16T10:39:31;11.3;7.8;6.5
74426;PMS7003;62859;53.906;27.430;2024-02-16T10:44:53;9;8.7;7
74426;PMS7003;62859;53.906;27.430;2024-02-16T10:49:29;10.7;9;6.3
74426;PMS7003;62859;53.906;27.430;2024-02-16T10:54:30;9.3;9;6.7
74426;PMS7003;62859;53.906;27.430;2024-02-16T10:59:53;9.8;9;6.5
74426;PMS7003;62859;53.906;27.430;2024-02-16T11:04:23;10.7;9.3;6.7
74426;PMS7003;62859;53.906;27.430;2024-02-16T11:09:34;8.7;7.7;5.7
74426;PMS7003;62859;53.906;27.430;2024-02-16T11:14:14;11.8;9.8;6.8
74426;PMS7003;62859;53.906;27.430;2024-02-16T11:19:17;10.3;7.7;6
74426;PMS7003;62859;53.906;27.430;2024-02-16T11:24:09;10;7.7;5.3
74426;PMS7003;62859;53.906;27.430;2024-02-16T11:29:09;10.7;9;6.7
74426;PMS7003;62859;53.906;27.430;2024-02-16T11:34:21;9.5;8.5;6.8
74426;PMS7003;62859;53.906;27.430;2024-02-16T11:39:45;7.7;7.7;4.7
74426;PMS7003;62859;53.906;27.430;2024-02-16T11:44:39;10.7;9.3;6.7
74426;PMS7003;62859;53.906;27.430;2024-02-16T11:49:43;8.3;8.3;6.7
74426;PMS7003;62859;53.906;27.430;2024-02-16T11:54:55;10.8;8.5;6.5
74426;PMS7003;62859;53.906;27.430;2024-02-16T11:59:39;10;8.7;6.7
74426;PMS7003;62859;53.906;27.430;2024-02-16T12:05:00;11;9;7.7
74426;PMS7003;62859;53.906;27.430;2024-02-16T12:09:54;14.3;10.3;7
74426;PMS7003;62859;53.906;27.430;2024-02-16T12:14:34;11.5;9.8;7.5
74426;PMS7003;62859;53.906;27.430;2024-02-16T12:19:43;11;9.3;7.7
74426;PMS7003;62859;53.906;27.430;2024-02-16T12:24:45;10.3;8.7;6.7
74426;PMS7003;62859;53.906;27.430;2024-02-16T12:29:43;14;10;7.3
74426;PMS7003;62859;53.906;27.430;2024-02-16T12:34:53;12.8;10.5;8.3
74426;PMS7003;62859;53.906;27.430;2024-02-16T12:39:09;10.3;8;6
74426;PMS7003;62859;53.906;27.430;2024-02-16T12:44:17;10;10;7
74426;PMS7003;62859;53.906;27.430;2024-02-16T12:49:17;13.7;11.7;7.7
74426;PMS7003;62859;53.906;27.430;2024-02-16T12:54:25;12.3;10;7.3
74426;PMS7003;62859;53.906;27.430;2024-02-16T12:59:10;10.7;10.7;7.3
74426;PMS7003;62859;53.906;27.430;2024-02-16T13:04:09;10.3;9.7;7.3
74426;PMS7003;62859;53.906;27.430;2024-02-16T13:09:35;11.3;9.3;6.8
74426;PMS7003;62859;53.906;27.430;2024-02-16T13:14:53;10.3;10;7
74426;PMS7003;62859;53.906;27.430;2024-02-16T13:19:43;10.7;8.3;7
74426;PMS7003;62859;53.906;27.430;2024-02-16T13:24:53;10;9.3;7
74426;PMS7003;62859;53.906;27.430;2024-02-16T13:29:53;11.3;10.5;6.8
74426;PMS7003;62859;53.906;27.430;2024-02-16T13:34:45;10.7;10.3;6
74426;PMS7003;62859;53.906;27.430;2024-02-16T13:39:53;12.7;9.7;6
74426;PMS7003;62859;53.906;27.430;2024-02-16T13:44:45;10.3;9.3;5.7
74426;PMS7003;62859;53.906;27.430;2024-02-16T13:49:20;16;13;8.3
74426;PMS7003;62859;53.906;27.430;2024-02-16T13:54:25;11.7;10.3;7.3
74426;PMS7003;62859;53.906;27.430;2024-02-16T13:59:53;11.3;10;7.3
74426;PMS7003;62859;53.906;27.430;2024-02-16T14:04:43;12.3;10.7;8
74426;PMS7003;62859;53.906;27.430;2024-02-16T14:09:56;12;9.3;7.8
74426;PMS7003;62859;53.906;27.430;2024-02-16T14:14:09;11.7;10.3;7.3
74426;PMS7003;62859;53.906;27.430;2024-02-16T14:19:53;11.7;10.3;8
74426;PMS7003;62859;53.906;27.430;2024-02-16T14:24:27;12.7;9.7;7
74426;PMS7003;62859;53.906;27.430;2024-02-16T14:29:10;12;10.8;8
74426;PMS7003;62859;53.906;27.430;2024-02-16T14:34:23;13;12;8
74426;PMS7003;62859;53.906;27.430;2024-02-16T14:39:54;10.7;10;7.7
74426;PMS7003;62859;53.906;27.430;2024-02-16T14:44:09;12.3;11.3;8.3
74426;PMS7003;62859;53.906;27.430;2024-02-16T14:49:33;13;12.5;8
74426;PMS7003;62859;53.906;27.430;2024-02-16T14:54:53;13.7;11;7.7
74426;PMS7003;62859;53.906;27.430;2024-02-16T14:59:23;14.7;12.3;8.7
74426;PMS7003;62859;53.906;27.430;2024-02-16T15:04:53;11;10;6.5
74426;PMS7003;62859;53.906;27.430;2024-02-16T15:09:09;13.7;11.7;7.7
74426;PMS7003;62859;53.906;27.430;2024-02-16T15:14:33;12.7;11.7;8.7
74426;PMS7003;62859;53.906;27.430;2024-02-16T15:19:26;13.3;10.3;8
74426;PMS7003;62859;53.906;27.430;2024-02-16T15:24:25;11.8;11;9
74426;PMS7003;62859;53.906;27.430;2024-02-16T15:29:17;13;10.7;7.7
74426;PMS7003;62859;53.906;27.430;2024-02-16T15:34:37;13.3;11.7;7.7
74426;PMS7003;62859;53.906;27.430;2024-02-16T15:39:09;12;11;7.3
74426;PMS7003;62859;53.906;27.430;2024-02-16T15:44:33;13.3;10.8;8
74426;PMS7003;62859;53.906;27.430;2024-02-16T15:49:29;11;9.7;7.7
74426;PMS7003;62859;53.906;27.430;2024-02-16T15:54:53;11;8.3;7
74426;PMS7003;62859;53.906;27.430;2024-02-16T15:59:55;11.7;8.3;6.3
74426;PMS7003;62859;53.906;27.430;2024-02-16T16:04:11;10;8.8;6
74426;PMS7003;62859;53.906;27.430;2024-02-16T16:09:35;10.3;9;6.7
74426;PMS7003;62859;53.906;27.430;2024-02-16T16:14:19;12.3;11.3;7.3
74426;PMS7003;62859;53.906;27.430;2024-02-16T16:19:20;13.3;11.7;7.3
74426;PMS7003;62859;53.906;27.430;2024-02-16T16:24:19;12.3;11;7.3
74426;PMS7003;62859;53.906;27.430;2024-02-16T16:29:55;13.7;10.7;7.7
74426;PMS7003;62859;53.906;27.430;2024-02-16T16:34:37;12.7;11;7.3
74426;PMS7003;62859;53.906;27.430;2024-02-16T16:39:47;12.7;11.3;7.3
74426;PMS7003;62859;53.906;27.430;2024-02-16T16:44:38;12.5;10.8;7.5
74426;PMS7003;62859;53.906;27.430;2024-02-16T16:49:30;12.3;9.7;6.3
74426;PMS7003;62859;53.906;27.430;2024-02-16T16:54:19;9;7.3;5.7
74426;PMS7003;62859;53.906;27.430;2024-02-16T16:59:56;10;9;6.5
74426;PMS7003;62859;53.906;27.430;2024-02-16T17:04:11;8.3;7.3;6.7
74426;PMS7003;62859;53.906;27.430;2024-02-16T17:09:48;9.3;8.7;6
74426;PMS7003;62859;53.906;27.430;2024-02-16T17:14:34;8.3;8;6.7
74426;PMS7003;62859;53.906;27.430;2024-02-16T17:19:14;10.8;9.3;6.5
74426;PMS7003;62859;53.906;27.430;2024-02-16T17:24:26;7.3;6.7;4.7
74426;PMS7003;62859;53.906;27.430;2024-02-16T17:29:56;8.3;7.7;5
74426;PMS7003;62859;53.906;27.430;2024-02-16T17:34:56;8.7;8;6
74426;PMS7003;62859;53.906;27.430;2024-02-16T17:39:36;7.8;7.8;4.8
74426;PMS7003;62859;53.906;27.430;2024-02-16T17:44:18;5.7;5.3;3
74426;PMS7003;62859;53.906;27.430;2024-02-16T17:49:12;7.7;5.3;4
74426;PMS7003;62859;53.906;27.430;2024-02-16T17:54:28;6.7;6.3;3.3
74426;PMS7003;62859;53.906;27.430;2024-02-16T17:59:48;7.3;5.8;3.8
74426;PMS7003;62859;53.906;27.430;2024-02-16T18:04:56;7.7;6;3.7
74426;PMS7003;62859;53.906;27.430;2024-02-16T18:09:12;6.3;5;4.3
74426;PMS7003;62859;53.906;27.430;2024-02-16T18:14:48;6;6;3.7
74426;PMS7003;62859;53.906;27.430;2024-02-16T18:19:12;6.3;5.8;3.5
74426;PMS7003;62859;53.906;27.430;2024-02-16T18:24:56;5.7;5.3;3.3
74426;PMS7003;62859;53.906;27.430;2024-02-16T18:29:20;6.7;4.7;2.7
74426;PMS7003;62859;53.906;27.430;2024-02-16T18:34:48;6;4.7;3
74426;PMS7003;62859;53.906;27.430;2024-02-16T18:39:20;8;6.5;4.3
74426;PMS7003;62859;53.906;27.430;2024-02-16T18:44:56;7.3;6;3.7
74426;PMS7003;62859;53.906;27.430;2024-02-16T18:49:36;5;4.7;3
74426;PMS7003;62859;53.906;27.430;2024-02-16T18:54:56;6.3;5.5;3.8
74426;PMS7003;62859;53.906;27.430;2024-02-16T18:59:26;6.7;5;2.3
74426;PMS7003;62859;53.906;27.430;2024-02-16T19:04:14;6;4.3;4
74426;PMS7003;62859;53.906;27.430;2024-02-16T19:09:42;7;6.3;3.7
74426;PMS7003;62859;53.906;27.430;2024-02-16T19:14:18;6;5;3.8
74426;PMS7003;62859;53.906;27.430;2024-02-16T19:19:12;4.3;4.3;2.7
74426;PMS7003;62859;53.906;27.430;2024-02-16T19:24:12;5.7;4;2.7
74426;PMS7003;62859;53.906;27.430;2024-02-16T19:29:12;6;5;3
74426;PMS7003;62859;53.906;27.430;2024-02-16T19:34:12;6.8;4.5;3
74426;PMS7003;62859;53.906;27.430;2024-02-16T19:39:20;8;5.7;4
74426;PMS7003;62859;53.906;27.430;2024-02-16T19:44:30;6.3;5.3;3
74426;PMS7003;62859;53.906;27.430;2024-02-16T19:49:56;5.7;5.7;4
74426;PMS7003;62859;53.906;27.430;2024-02-16T19:54:40;6.5;6;3.8
74426;PMS7003;62859;53.906;27.430;2024-02-16T19:59:56;5.7;5.3;4
74426;PMS7003;62859;53.906;27.430;2024-02-16T20:04:57;5.7;5.7;3
74426;PMS7003;62859;53.906;27.430;2024-02-16T20:09:48;7.3;4.3;2.7
74426;PMS7003;62859;53.906;27.430;2024-02-16T20:14:56;6.3;5;3.8
74426;PMS7003;62859;53.906;27.430;2024-02-16T20:19:56;5;4.3;3.3
74426;PMS7003;62859;53.906;27.430;2024-02-16T20:24:36;6;5.7;4
74426;PMS7003;62859;53.906;27.430;2024-02-16T20:29:20;5.7;4;3
74426;PMS7003;62859;53.906;27.430;2024-02-16T20:34:54;5.5;5.5;3.8
74426;PMS7003;62859;53.906;27.430;2024-02-16T20:39:46;6.3;4.7;2.7
74426;PMS7003;62859;53.906;27.430;2024-02-16T20:44:56;5;4.7;3
74426;PMS7003;62859;53.906;27.430;2024-02-16T20:49:20;4.5;4;2.3
74426;PMS7003;62859;53.906;27.430;2024-02-16T20:54:14;4;3.7;3.3
74426;PMS7003;62859;53.906;27.430;2024-02-16T20:59:20;6;4;2.7
74426;PMS7003;62859;53.906;27.430;2024-02-16T21:04:23;3.7;3.7;2.7
74426;PMS7003;62859;53.906;27.430;2024-02-16T21:09:12;6.3;4;2.8
74426;PMS7003;62859;53.906;27.430;2024-02-16T21:14:12;5;3.7;2.7
74426;PMS7003;62859;53.906;27.430;2024-02-16T21:19:20;4.3;3.7;2.7
74426;PMS7003;62859;53.906;27.430;2024-02-16T21:24:56;5;3.3;2.7
74426;PMS7003;62859;53.906;27.430;2024-02-16T21:29:46;4.8;4.5;3
74426;PMS7003;62859;53.906;27.430;2024-02-16T21:34:56;6;4;2.3
74426;PMS7003;62859;53.906;27.430;2024-02-16T21:39:56;5.3;4;2.7
74426;PMS7003;62859;53.906;27.430;2024-02-16T21:44:48;3.3;3.3;2.3
74426;PMS7003;62859;53.906;27.430;2024-02-16T21:49:56;6.5;4.8;3
74426;PMS7003;62859;53.906;27.430;2024-02-16T21:54:56;7;5;3.3
74426;PMS7003;62859;53.906;27.430;2024-02-16T21:59:56;4;4;3.3
74426;PMS7003;62859;53.906;27.430;2024-02-16T22:04:20;3;3;2.3
74426;PMS7003;62859;53.906;27.430;2024-02-16T22:09:54;4.5;3.5;2.8
74426;PMS7003;62859;53.906;27.430;2024-02-16T22:14:44;7;4.3;2.7
74426;PMS7003;62859;53.906;27.430;2024-02-16T22:19:54;6.3;4;3
74426;PMS7003;62859;53.906;27.430;2024-02-16T22:24:12;4.3;4;3
74426;PMS7003;62859;53.906;27.430;2024-02-16T22:29:56;5.3;5;2.5
74426;PMS7003;62859;53.906;27.430;2024-02-16T22:34:30;6;4.7;3.3
74426;PMS7003;62859;53.906;27.430;2024-02-16T22:39:28;6.3;5.7;2.7
74426;PMS7003;62859;53.906;27.430;2024-02-16T22:44:12;8;5.5;3
74426;PMS7003;62859;53.906;27.430;2024-02-16T22:49:46;6;4;3.3
74426;PMS7003;62859;53.906;27.430;2024-02-16T22:54:18;6;5.7;3.3
74426;PMS7003;62859;53.906;27.430;2024-02-16T22:59:36;6.7;6;4.3
74426;PMS7003;62859;53.906;27.430;2024-02-16T23:04:54;7.5;5.5;4
74426;PMS7003;62859;53.906;27.430;2024-02-16T23:09:36;5.3;4.7;3.3
74426;PMS7003;62859;53.906;27.430;2024-02-16T23:14:54;9.7;9.3;5.7
74426;PMS7003;62859;53.906;27.430;2024-02-16T23:19:44;8.7;7.7;5
74426;PMS7003;62859;53.906;27.430;2024-02-16T23:24:34;7;6.8;4.5
74426;PMS7003;62859;53.906;27.430;2024-02-16T23:29:26;8.3;7.3;4
74426;PMS7003;62859;53.906;27.430;2024-02-16T23:34:34;8.3;5.7;3.3
74426;PMS7003;62859;53.906;27.430;2024-02-16T23:39:20;7;6.7;4
74426;PMS7003;62859;53.906;27.430;2024-02-16T23:44:46;8.3;6.3;3.8
74426;PMS7003;62859;53.906;27.430;2024-02-16T23:49:28;8.3;7.3;4.3
74426;PMS7003;62859;53.906;27.430;2024-02-16T23:54:14;7;6;4.3
74426;PMS7003;62859;53.906;27.430;2024-02-16T23:59:12;9.3;5.7;3.7
